sensor_id;sensor_type;location;lat;lon;timestamp;temperature;humidity
40249;DHT22;25969;49.970;11.062;2023-06-22T04:06:30;19.40;99.90
40249;DHT22;25969;49.970;11.062;2023-06-22T04:16:31;20.60;99.90
40249;DHT22;25969;49.970;11.062;2023-06-22T04:26:32;20.50;99.90
40249;DHT22;25969;49.970;11.062;2023-06-22T04:36:40;20.30;99.90
40249;DHT22;25969;49.970;11.062;2023-06-22T04:46:41;20.20;99.90
40249;DHT22;25969;49.970;11.062;2023-06-22T04:56:41;20.30;99.90
40249;DHT22;25969;49.970;11.062;2023-06-22T05:06:42;20.30;99.90
40249;DHT22;25969;49.970;11.062;2023-06-22T05:16:43;20.50;99.90
40249;DHT22;25969;49.970;11.062;2023-06-22T05:26:44;20.50;99.90
40249;DHT22;25969;49.970;11.062;2023-06-22T05:36:45;20.70;99.90
40249;DHT22;25969;49.970;11.062;2023-06-22T05:46:46;21.10;99.90
40249;DHT22;25969;49.970;11.062;2023-06-22T05:56:47;21.50;99.90
40249;DHT22;25969;49.970;11.062;2023-06-22T06:06:48;22.00;99.90
40249;DHT22;25969;49.970;11.062;2023-06-22T06:16:49;22.60;99.90
40249;DHT22;25969;49.970;11.062;2023-06-22T06:26:50;23.10;99.90
40249;DHT22;25969;49.970;11.062;2023-06-22T06:36:51;23.60;99.90
40249;DHT22;25969;49.970;11.062;2023-06-22T06:46:51;24.10;97.60
40249;DHT22;25969;49.970;11.062;2023-06-22T06:56:52;24.60;96.30
40249;DHT22;25969;49.970;11.062;2023-06-22T07:06:53;25.60;93.60
40249;DHT22;25969;49.970;11.062;2023-06-22T07:16:54;25.50;92.50
40249;DHT22;25969;49.970;11.062;2023-06-22T07:26:54;25.50;90.70
40249;DHT22;25969;49.970;11.062;2023-06-22T07:36:55;25.30;90.60
40249;DHT22;25969;49.970;11.062;2023-06-22T07:46:56;25.50;90.50
40249;DHT22;25969;49.970;11.062;2023-06-22T07:56:56;26.30;86.20
40249;DHT22;25969;49.970;11.062;2023-06-22T08:06:57;26.60;82.30
40249;DHT22;25969;49.970;11.062;2023-06-22T08:16:58;26.90;81.20
40249;DHT22;25969;49.970;11.062;2023-06-22T08:26:59;27.30;77.00
40249;DHT22;25969;49.970;11.062;2023-06-22T08:37:00;28.10;74.90
40249;DHT22;25969;49.970;11.062;2023-06-22T08:47:01;29.00;70.20
40249;DHT22;25969;49.970;11.062;2023-06-22T08:57:02;28.80;68.10
40249;DHT22;25969;49.970;11.062;2023-06-22T09:07:04;29.40;66.60
40249;DHT22;25969;49.970;11.062;2023-06-22T09:17:05;28.90;64.50
40249;DHT22;25969;49.970;11.062;2023-06-22T09:27:05;30.30;61.00
40249;DHT22;25969;49.970;11.062;2023-06-22T09:37:06;31.30;61.30
40249;DHT22;25969;49.970;11.062;2023-06-22T09:47:07;31.10;60.20
40249;DHT22;25969;49.970;11.062;2023-06-22T09:57:08;32.00;54.60
40249;DHT22;25969;49.970;11.062;2023-06-22T10:07:09;31.80;55.50
40249;DHT22;25969;49.970;11.062;2023-06-22T10:17:09;32.60;52.60
40249;DHT22;25969;49.970;11.062;2023-06-22T10:27:11;31.40;53.60
40249;DHT22;25969;49.970;11.062;2023-06-22T10:37:12;31.20;55.10
40249;DHT22;25969;49.970;11.062;2023-06-22T10:47:12;31.60;54.10
40249;DHT22;25969;49.970;11.062;2023-06-22T10:57:13;32.70;49.30
40249;DHT22;25969;49.970;11.062;2023-06-22T11:07:15;32.80;52.20
40249;DHT22;25969;49.970;11.062;2023-06-22T11:17:16;33.40;50.80
40249;DHT22;25969;49.970;11.062;2023-06-22T11:27:16;33.50;48.50
40249;DHT22;25969;49.970;11.062;2023-06-22T11:37:17;33.30;46.90
40249;DHT22;25969;49.970;11.062;2023-06-22T11:47:18;34.50;46.80
40249;DHT22;25969;49.970;11.062;2023-06-22T11:57:19;35.70;45.20
40249;DHT22;25969;49.970;11.062;2023-06-22T12:07:20;34.70;45.90
40249;DHT22;25969;49.970;11.062;2023-06-22T12:17:20;33.70;47.30
40249;DHT22;25969;49.970;11.062;2023-06-22T12:27:21;38.10;41.90
40249;DHT22;25969;49.970;11.062;2023-06-22T12:37:23;35.70;42.20
40249;DHT22;25969;49.970;11.062;2023-06-22T12:47:23;37.30;39.90
40249;DHT22;25969;49.970;11.062;2023-06-22T12:57:25;34.90;44.80
40249;DHT22;25969;49.970;11.062;2023-06-22T13:07:26;37.00;41.30
40249;DHT22;25969;49.970;11.062;2023-06-22T13:17:26;40.30;39.40
40249;DHT22;25969;49.970;11.062;2023-06-22T13:27:27;38.40;41.50
40249;DHT22;25969;49.970;11.062;2023-06-22T13:37:28;35.20;44.40
40249;DHT22;25969;49.970;11.062;2023-06-22T13:47:29;33.60;46.40
40249;DHT22;25969;49.970;11.062;2023-06-22T13:57:31;33.80;46.70
40249;DHT22;25969;49.970;11.062;2023-06-22T14:07:31;34.80;46.70
40249;DHT22;25969;49.970;11.062;2023-06-22T14:17:32;34.10;48.80
40249;DHT22;25969;49.970;11.062;2023-06-22T14:27:33;32.50;51.60
40249;DHT22;25969;49.970;11.062;2023-06-22T14:37:34;32.70;51.00
40249;DHT22;25969;49.970;11.062;2023-06-22T14:47:34;34.80;50.30
40249;DHT22;25969;49.970;11.062;2023-06-22T14:57:35;35.50;44.80
40249;DHT22;25969;49.970;11.062;2023-06-22T15:07:36;35.30;44.90
40249;DHT22;25969;49.970;11.062;2023-06-22T15:17:36;35.10;46.10
40249;DHT22;25969;49.970;11.062;2023-06-22T15:27:37;35.60;44.70
40249;DHT22;25969;49.970;11.062;2023-06-22T15:37:38;34.10;46.00
40249;DHT22;25969;49.970;11.062;2023-06-22T15:47:43;34.30;46.90
40249;DHT22;25969;49.970;11.062;2023-06-22T15:57:44;35.00;46.20
40249;DHT22;25969;49.970;11.062;2023-06-22T16:07:47;35.50;44.40
40249;DHT22;25969;49.970;11.062;2023-06-22T16:17:48;35.90;44.10
40249;DHT22;25969;49.970;11.062;2023-06-22T16:27:49;36.20;42.80
40249;DHT22;25969;49.970;11.062;2023-06-22T16:37:50;34.80;43.40
40249;DHT22;25969;49.970;11.062;2023-06-22T16:47:51;34.40;45.00
40249;DHT22;25969;49.970;11.062;2023-06-22T16:57:52;33.80;48.30
40249;DHT22;25969;49.970;11.062;2023-06-22T17:07:56;31.90;61.70
40249;DHT22;25969;49.970;11.062;2023-06-22T17:17:58;31.00;61.40
40249;DHT22;25969;49.970;11.062;2023-06-22T17:28:01;31.10;63.00
40249;DHT22;25969;49.970;11.062;2023-06-22T17:38:02;31.20;61.80
40249;DHT22;25969;49.970;11.062;2023-06-22T17:48:07;30.10;65.90
40249;DHT22;25969;49.970;11.062;2023-06-22T17:58:09;29.10;67.10
40249;DHT22;25969;49.970;11.062;2023-06-22T18:08:09;28.40;68.90
40249;DHT22;25969;49.970;11.062;2023-06-22T18:18:11;27.70;70.70
40249;DHT22;25969;49.970;11.062;2023-06-22T18:28:13;28.10;72.40
40249;DHT22;25969;49.970;11.062;2023-06-22T18:38:15;27.50;75.70
40249;DHT22;25969;49.970;11.062;2023-06-22T18:48:23;26.80;76.70
40249;DHT22;25969;49.970;11.062;2023-06-22T18:58:25;21.40;99.90
40249;DHT22;25969;49.970;11.062;2023-06-22T19:08:26;21.30;99.90
40249;DHT22;25969;49.970;11.062;2023-06-22T19:18:40;21.10;99.90
40249;DHT22;25969;49.970;11.062;2023-06-22T19:28:48;20.70;99.90
40249;DHT22;25969;49.970;11.062;2023-06-22T19:38:50;20.60;99.90
40249;DHT22;25969;49.970;11.062;2023-06-22T19:48:51;20.70;99.90
40249;DHT22;25969;49.970;11.062;2023-06-22T19:58:51;20.70;99.90
40249;DHT22;25969;49.970;11.062;2023-06-22T20:08:55;20.20;99.90
40249;DHT22;25969;49.970;11.062;2023-06-22T20:19:10;20.10;99.90
40249;DHT22;25969;49.970;11.062;2023-06-22T20:29:28;20.00;99.90
40249;DHT22;25969;49.970;11.062;2023-06-22T20:39:33;19.40;99.90
40249;DHT22;25969;49.970;11.062;2023-06-22T20:49:33;19.30;99.90
40249;DHT22;25969;49.970;11.062;2023-06-22T20:59:36;19.30;99.90
40249;DHT22;25969;49.970;11.062;2023-06-22T21:09:36;19.50;99.90
40249;DHT22;25969;49.970;11.062;2023-06-22T21:19:37;19.60;99.90
40249;DHT22;25969;49.970;11.062;2023-06-22T21:29:38;20.00;99.90
40249;DHT22;25969;49.970;11.062;2023-06-22T21:39:38;20.00;99.90
40249;DHT22;25969;49.970;11.062;2023-06-22T21:49:39;20.00;99.90
